Time;durP1;ratioP1;P1;durP2;ratioP2;P2;SDS_P1;SDS_P2;PMS_P1;PMS_P2;Temp;Humidity;BMP_temperature;BMP_pressure;BME280_temperature;BME280_humidity;BME280_pressure;Samples;Min_cycle;Max_cycle;Signal;HPM_P1;HPM_P2
2022/12/14 00:00:46;;;;;;;;;;;;;;;1.61;57.84;100480.63;5029099;28;116101;-67
2022/12/14 00:03:13;;;;;;;;;;;;;;;1.61;57.84;100476.25;5029652;28;114637;-68
2022/12/14 00:05:40;;;;;;;;;;;;;;;1.63;57.94;100484.09;5027032;28;124284;-67
2022/12/14 00:08:08;;;;;;;;;;;;;;;1.63;57.91;100473.63;5025621;28;124089;-66
2022/12/14 00:10:35;;;;;;;;;;;;;;;1.64;58.00;100476.22;5026685;28;115052;-67
2022/12/14 00:13:02;;;;;;;;;;;;;;;1.65;57.88;100477.09;5029076;27;112560;-67
2022/12/14 00:15:29;;;;;;;;;;;;;;;1.66;57.95;100479.69;5028371;28;125011;-67
2022/12/14 00:17:56;;;;;;;;;;;;;;;1.68;57.94;100471.84;5028712;27;123241;-67
2022/12/14 00:20:24;;;;;;;;;;;;;;;1.69;58.00;100458.75;5029934;28;114534;-66
2022/12/14 00:22:51;;;;;;;;;;;;;;;1.70;57.91;100455.25;5026158;28;113368;-67
2022/12/14 00:25:18;;;;;;;;;;;;;;;1.69;57.74;100448.28;5028466;28;125044;-67
2022/12/14 00:27:45;;;;;;;;;;;;;;;1.68;57.72;100451.81;5029282;28;125396;-67
2022/12/14 00:30:13;;;;;;;;;;;;;;;1.69;57.89;100445.69;5028843;28;115132;-66
2022/12/14 00:32:40;;;;;;;;;;;;;;;1.68;57.73;100451.81;5028856;28;113429;-67
2022/12/14 00:35:11;;;;;;;;;;;;;;;1.67;57.63;100455.28;5028510;28;125721;-67
2022/12/14 00:37:38;;;;;;;;;;;;;;;1.66;57.77;100453.59;5024670;28;124336;-67
2022/12/14 00:40:06;;;;;;;;;;;;;;;1.66;57.66;100458.81;5026959;28;114685;-67
2022/12/14 00:42:33;;;;;;;;;;;;;;;1.65;57.63;100451.84;5028839;28;113735;-66
2022/12/14 00:45:01;;;;;;;;;;;;;;;1.63;57.68;100452.75;5026634;28;125071;-67
2022/12/14 00:47:27;;;;;;;;;;;;;;;1.59;57.64;100446.72;5028006;27;121784;-67
2022/12/14 00:49:54;;;;;;;;;;;;;;;1.57;57.61;100451.09;5028851;28;115873;-67
2022/12/14 00:52:21;;;;;;;;;;;;;;;1.56;57.69;100446.75;5029396;27;114761;-67
2022/12/14 00:54:48;;;;;;;;;;;;;;;1.55;57.61;100440.69;5023287;27;123162;-67
2022/12/14 00:57:15;;;;;;;;;;;;;;;1.55;57.70;100440.69;5025839;28;124550;-67
2022/12/14 00:59:42;;;;;;;;;;;;;;;1.55;57.69;100430.25;5023888;28;114823;-67
2022/12/14 01:02:09;;;;;;;;;;;;;;;1.52;57.55;100434.63;5027044;28;113736;-67
2022/12/14 01:04:36;;;;;;;;;;;;;;;1.50;57.72;100418.16;5026311;28;124390;-66
2022/12/14 01:07:03;;;;;;;;;;;;;;;1.49;57.60;100416.44;5026835;28;124246;-66
2022/12/14 01:09:29;;;;;;;;;;;;;;;1.47;57.77;100415.56;5028563;28;114809;-67
2022/12/14 01:11:56;;;;;;;;;;;;;;;1.46;57.53;100413.84;5029568;28;113767;-67
2022/12/14 01:14:23;;;;;;;;;;;;;;;1.46;57.69;100400.81;5031638;28;124041;-66
2022/12/14 01:16:50;;;;;;;;;;;;;;;1.44;57.73;100394.75;5009753;27;123434;-67
2022/12/14 01:19:18;;;;;;;;;;;;;;;1.43;57.64;100398.22;5026920;28;114329;-67
2022/12/14 01:21:44;;;;;;;;;;;;;;;1.42;57.77;100397.38;5025645;28;114234;-67
2022/12/14 01:24:11;;;;;;;;;;;;;;;1.43;57.77;100395.63;5027544;28;124377;-67
2022/12/14 01:26:39;;;;;;;;;;;;;;;1.44;57.76;100394.75;5023048;28;124641;-66
2022/12/14 01:29:06;;;;;;;;;;;;;;;1.44;57.75;100389.53;5027827;28;114137;-67
2022/12/14 01:31:34;;;;;;;;;;;;;;;1.46;57.51;100392.97;5029322;28;114223;-67
2022/12/14 01:34:01;;;;;;;;;;;;;;;1.47;57.72;100389.47;5023334;28;124070;-67
2022/12/14 01:36:30;;;;;;;;;;;;;;;1.47;57.71;100385.13;5026231;27;126608;-67
2022/12/14 01:38:58;;;;;;;;;;;;;;;1.48;57.64;100383.38;5024421;28;115850;-67
2022/12/14 01:41:27;;;;;;;;;;;;;;;1.47;57.73;100369.47;5025399;28;115490;-67
2022/12/14 01:43:56;;;;;;;;;;;;;;;1.47;57.61;100373.81;5018601;28;124221;-66
2022/12/14 01:46:23;;;;;;;;;;;;;;;1.48;57.71;100372.94;5026472;27;123063;-67
2022/12/14 01:48:51;;;;;;;;;;;;;;;1.48;57.64;100375.56;5006846;28;114786;-67
2022/12/14 01:51:18;;;;;;;;;;;;;;;1.48;57.69;100375.56;5028772;28;113610;-67
2022/12/14 01:53:45;;;;;;;;;;;;;;;1.47;57.69;100373.81;5026896;28;124589;-67
2022/12/14 01:56:13;;;;;;;;;;;;;;;1.45;57.69;100375.59;5025836;28;124253;-67
2022/12/14 01:58:39;;;;;;;;;;;;;;;1.44;57.70;100379.97;5028157;28;114486;-67
2022/12/14 02:01:06;;;;;;;;;;;;;;;1.44;57.77;100373.88;5028616;28;113381;-67
2022/12/14 02:03:36;;;;;;;;;;;;;;;1.44;57.65;100381.72;5024592;28;124366;-66
2022/12/14 02:06:16;;;;;;;;;;;;;;;1.45;57.83;100380.81;5030725;28;125149;-67
2022/12/14 02:08:45;;;;;;;;;;;;;;;1.46;57.86;100370.34;5029457;27;114564;-66
2022/12/14 02:11:12;;;;;;;;;;;;;;;1.48;57.68;100365.97;5028364;28;113667;-67
2022/12/14 02:13:40;;;;;;;;;;;;;;;1.48;57.63;100365.13;5035507;28;125732;-67
2022/12/14 02:16:07;;;;;;;;;;;;;;;1.47;57.70;100363.38;5039962;28;123456;-67
2022/12/14 02:18:34;;;;;;;;;;;;;;;1.46;57.62;100356.44;5037424;28;113809;-66
2022/12/14 02:21:01;;;;;;;;;;;;;;;1.46;57.71;100354.69;5036308;28;113636;-67
2022/12/14 02:23:48;;;;;;;;;;;;;;;1.46;57.63;100346.00;5033457;27;124712;-67
2022/12/14 02:26:21;;;;;;;;;;;;;;;1.44;57.59;100353.00;5028974;28;123729;-66
2022/12/14 02:29:10;;;;;;;;;;;;;;;1.41;57.70;100342.59;5028764;27;115498;-67
2022/12/14 02:31:45;;;;;;;;;;;;;;;1.41;57.74;100353.03;5008115;28;113808;-67
2022/12/14 02:34:30;;;;;;;;;;;;;;;1.40;57.60;100340.91;5022688;28;124112;-66
2022/12/14 02:37:17;;;;;;;;;;;;;;;1.38;57.62;100332.25;5027063;27;123119;-66
2022/12/14 02:40:10;;;;;;;;;;;;;;;1.36;57.57;100325.28;5030886;28;114748;-67
2022/12/14 02:42:37;;;;;;;;;;;;;;;1.34;57.46;100321.84;5031644;28;114238;-67
2022/12/14 02:45:37;;;;;;;;;;;;;;;1.32;57.33;100323.63;5027099;28;124090;-67
2022/12/14 02:48:12;;;;;;;;;;;;;;;1.31;57.53;100321.88;5004691;28;123620;-67
2022/12/14 02:50:42;;;;;;;;;;;;;;;1.31;57.59;100321.88;5027151;28;115104;-66
2022/12/14 02:53:30;;;;;;;;;;;;;;;1.33;57.72;100329.69;5029249;28;113683;-66
2022/12/14 02:56:00;;;;;;;;;;;;;;;1.32;57.63;100328.84;5030048;28;124266;-66
2022/12/14 02:58:38;;;;;;;;;;;;;;;1.34;57.63;100331.41;5028495;28;124157;-67
2022/12/14 03:01:10;;;;;;;;;;;;;;;1.34;57.62;100337.50;5029175;28;114600;-67
2022/12/14 03:03:37;;;;;;;;;;;;;;;1.34;57.49;100332.28;5027220;28;113765;-67
2022/12/14 03:06:13;;;;;;;;;;;;;;;1.35;57.54;100328.75;5027384;28;124315;-67
2022/12/14 03:08:43;;;;;;;;;;;;;;;1.37;57.58;100328.75;5010369;28;122816;-67
2022/12/14 03:11:12;;;;;;;;;;;;;;;1.39;57.63;100328.72;5030005;28;117774;-66
2022/12/14 03:13:51;;;;;;;;;;;;;;;1.40;57.52;100325.25;5029732;27;112921;-67
2022/12/14 03:16:32;;;;;;;;;;;;;;;1.39;57.41;100319.16;5027317;28;124210;-66
2022/12/14 03:19:06;;;;;;;;;;;;;;;1.38;57.59;100324.41;5029791;28;124742;-67
2022/12/14 03:21:35;;;;;;;;;;;;;;;1.37;57.40;100323.53;5027087;27;115412;-67
2022/12/14 03:24:11;;;;;;;;;;;;;;;1.38;57.47;100316.59;5029461;28;114973;-67
2022/12/14 03:26:38;;;;;;;;;;;;;;;1.38;57.46;100316.59;5024911;28;125169;-66
2022/12/14 03:29:16;;;;;;;;;;;;;;;1.34;57.37;100308.78;5028133;28;124966;-67
2022/12/14 03:31:55;;;;;;;;;;;;;;;1.32;57.34;100313.19;5026156;28;115454;-67
2022/12/14 03:34:36;;;;;;;;;;;;;;;1.31;57.36;100310.59;5027663;28;113972;-67
2022/12/14 03:37:18;;;;;;;;;;;;;;;1.31;57.25;100306.22;5025161;28;125808;-66
2022/12/14 03:39:46;;;;;;;;;;;;;;;1.30;57.54;100309.72;5027365;28;125527;-67
2022/12/14 03:42:19;;;;;;;;;;;;;;;1.31;57.49;100306.22;5025498;28;115445;-67
2022/12/14 03:45:05;;;;;;;;;;;;;;;1.33;57.68;100299.22;5028027;28;114017;-66
2022/12/14 03:47:42;;;;;;;;;;;;;;;1.34;57.52;100295.75;5026089;28;124342;-67
2022/12/14 03:50:10;;;;;;;;;;;;;;;1.33;57.50;100291.41;5025014;28;123837;-67
2022/12/14 03:52:51;;;;;;;;;;;;;;;1.32;57.53;100287.09;5028575;28;114279;-65
2022/12/14 03:55:18;;;;;;;;;;;;;;;1.31;57.33;100285.34;5027034;28;114452;-66
2022/12/14 03:58:05;;;;;;;;;;;;;;;1.29;57.37;100275.84;5028072;28;124622;-66
2022/12/14 04:00:37;;;;;;;;;;;;;;;1.27;57.36;100278.47;5022127;28;124851;-67
2022/12/14 04:03:30;;;;;;;;;;;;;;;1.25;57.47;100280.25;5027305;28;114357;-67
2022/12/14 04:06:08;;;;;;;;;;;;;;;1.26;57.45;100266.34;5021312;28;113348;-66
2022/12/14 04:08:42;;;;;;;;;;;;;;;1.24;57.51;100265.47;5027427;28;124334;-66
2022/12/14 04:19:50;;;;;;;;;;;;;;;1.21;57.48;100265.53;5022744;28;123919;-67
2022/12/14 04:22:20;;;;;;;;;;;;;;;1.21;57.44;100257.72;5026969;28;124214;-66
2022/12/14 04:27:58;;;;;;;;;;;;;;;1.21;57.36;100247.28;5023392;28;114309;-67
2022/12/14 04:30:27;;;;;;;;;;;;;;;1.21;57.47;100252.50;5028023;28;125679;-66
2022/12/14 04:32:57;;;;;;;;;;;;;;;1.22;57.51;100248.97;5028389;28;123452;-67
2022/12/14 04:35:28;;;;;;;;;;;;;;;1.24;57.41;100241.13;5029590;28;114946;-67
2022/12/14 04:38:02;;;;;;;;;;;;;;;1.25;57.45;100241.13;5027008;28;113385;-67
2022/12/14 04:40:32;;;;;;;;;;;;;;;1.25;57.46;100238.50;5023928;28;124432;-67
2022/12/14 04:43:04;;;;;;;;;;;;;;;1.26;57.49;100224.59;5026843;28;123867;-67
2022/12/14 04:45:38;;;;;;;;;;;;;;;1.27;57.40;100221.09;5020995;28;115257;-67
2022/12/14 04:48:14;;;;;;;;;;;;;;;1.26;57.36;100222.00;5022928;28;114295;-67
2022/12/14 04:50:45;;;;;;;;;;;;;;;1.24;57.44;100226.34;5027944;28;123437;-67
2022/12/14 04:53:24;;;;;;;;;;;;;;;1.24;57.44;100215.91;5025146;27;123433;-66
2022/12/14 04:55:54;;;;;;;;;;;;;;;1.25;57.49;100217.66;5024758;28;116299;-66
2022/12/14 04:58:24;;;;;;;;;;;;;;;1.26;57.37;100224.59;5029397;28;115395;-67
2022/12/14 05:00:57;;;;;;;;;;;;;;;1.27;57.55;100215.00;5028120;28;124236;-67
2022/12/14 05:03:28;;;;;;;;;;;;;;;1.28;57.55;100214.09;5026529;28;123440;-66
2022/12/14 05:06:04;;;;;;;;;;;;;;;1.29;57.69;100208.88;5024074;28;116009;-67
2022/12/14 05:08:54;;;;;;;;;;;;;;;1.30;57.52;100205.38;5027802;28;116178;-67
2022/12/14 05:11:25;;;;;;;;;;;;;;;1.32;57.48;100203.63;5023003;27;124710;-67
2022/12/14 05:14:18;;;;;;;;;;;;;;;1.33;57.49;100200.09;5026510;28;124503;-66
2022/12/14 05:16:45;;;;;;;;;;;;;;;1.32;57.53;100190.56;5026555;28;115858;-67
2022/12/14 05:19:15;;;;;;;;;;;;;;;1.33;57.33;100194.88;5027705;28;114372;-67
2022/12/14 05:21:47;;;;;;;;;;;;;;;1.34;57.46;100196.63;5028146;28;124327;-67
2022/12/14 05:24:15;;;;;;;;;;;;;;;1.33;57.43;100189.66;5022433;28;124114;-66
2022/12/14 05:26:42;;;;;;;;;;;;;;;1.33;57.38;100189.66;5026789;28;114593;-67
2022/12/14 05:29:09;;;;;;;;;;;;;;;1.33;57.35;100179.22;5025297;28;114758;-67
2022/12/14 05:31:36;;;;;;;;;;;;;;;1.34;57.41;100185.31;5021419;28;124064;-67
2022/12/14 05:34:03;;;;;;;;;;;;;;;1.33;57.24;100184.44;5027114;28;126172;-66
2022/12/14 05:36:30;;;;;;;;;;;;;;;1.35;57.31;100174.00;5025127;28;114339;-67
2022/12/14 05:38:57;;;;;;;;;;;;;;;1.35;57.48;100177.44;5029745;27;113851;-67
2022/12/14 05:41:24;;;;;;;;;;;;;;;1.38;57.27;100175.69;5030034;28;123133;-67
2022/12/14 05:43:51;;;;;;;;;;;;;;;1.38;57.51;100178.31;5026930;28;123087;-67
2022/12/14 05:46:18;;;;;;;;;;;;;;;1.39;57.42;100174.81;5031922;28;114449;-67
2022/12/14 05:48:45;;;;;;;;;;;;;;;1.41;57.41;100175.63;5032362;28;114153;-67
2022/12/14 05:51:16;;;;;;;;;;;;;;;1.42;57.56;100166.94;5027740;27;123477;-67
2022/12/14 05:53:43;;;;;;;;;;;;;;;1.43;57.45;100168.63;5030041;28;124301;-67
2022/12/14 05:56:10;;;;;;;;;;;;;;;1.45;57.48;100172.06;5029678;27;116030;-66
2022/12/14 05:58:37;;;;;;;;;;;;;;;1.46;57.42;100173.81;5030779;28;114655;-67
2022/12/14 06:01:05;;;;;;;;;;;;;;;1.47;57.37;100178.13;5031001;28;124531;-66
2022/12/14 06:03:33;;;;;;;;;;;;;;;1.49;57.48;100173.75;5030632;28;123701;-67
2022/12/14 06:06:01;;;;;;;;;;;;;;;1.51;57.31;100171.97;5032257;27;114649;-66
2022/12/14 06:08:32;;;;;;;;;;;;;;;1.50;57.39;100165.88;5031537;28;114237;-66
2022/12/14 06:11:07;;;;;;;;;;;;;;;1.52;57.48;100168.47;5028526;27;124525;-66
2022/12/14 06:13:34;;;;;;;;;;;;;;;1.52;57.35;100165.84;5011830;28;123303;-66
2022/12/14 06:16:09;;;;;;;;;;;;;;;1.52;57.17;100168.47;5031071;28;114493;-67
2022/12/14 06:18:39;;;;;;;;;;;;;;;1.53;57.21;100167.59;5028371;28;113492;-67
2022/12/14 06:21:06;;;;;;;;;;;;;;;1.52;57.28;100168.47;5030383;27;124959;-67
2022/12/14 06:23:33;;;;;;;;;;;;;;;1.52;57.29;100158.03;5030530;28;124143;-67
2022/12/14 06:26:00;;;;;;;;;;;;;;;1.52;57.31;100168.47;5031889;28;114395;-67
2022/12/14 06:28:27;;;;;;;;;;;;;;;1.50;57.21;100159.81;5028795;28;114353;-67
2022/12/14 06:30:53;;;;;;;;;;;;;;;1.49;57.09;100160.72;5028922;28;124449;-67
2022/12/14 06:33:20;;;;;;;;;;;;;;;1.48;57.05;100161.59;5035201;27;123691;-67
2022/12/14 06:35:47;;;;;;;;;;;;;;;1.46;57.02;100163.38;5030266;28;114677;-66
2022/12/14 06:38:15;;;;;;;;;;;;;;;1.43;57.17;100155.59;5031993;27;113578;-67
2022/12/14 06:40:42;;;;;;;;;;;;;;;1.41;57.08;100165.19;5031538;27;125262;-67
2022/12/14 06:43:09;;;;;;;;;;;;;;;1.39;57.06;100161.75;5030954;28;123688;-66
2022/12/14 06:45:36;;;;;;;;;;;;;;;1.35;56.93;100161.78;5030943;28;115330;-67
2022/12/14 06:48:03;;;;;;;;;;;;;;;1.34;57.07;100165.31;5029391;28;115117;-66
2022/12/14 06:50:30;;;;;;;;;;;;;;;1.32;56.98;100169.69;5033839;27;125139;-67
2022/12/14 06:52:57;;;;;;;;;;;;;;;1.30;56.84;100174.09;5045556;27;122851;-66
2022/12/14 06:55:24;;;;;;;;;;;;;;;1.29;56.81;100180.19;5037696;28;115225;-67
2022/12/14 06:57:51;;;;;;;;;;;;;;;1.26;56.86;100176.75;5032266;28;113865;-66
2022/12/14 07:00:19;;;;;;;;;;;;;;;1.26;56.94;100179.38;5032060;28;124367;-67
2022/12/14 07:02:47;;;;;;;;;;;;;;;1.24;57.02;100174.16;5031190;28;124592;-67
2022/12/14 07:05:14;;;;;;;;;;;;;;;1.26;57.01;100171.53;5025723;27;114631;-67
2022/12/14 07:07:41;;;;;;;;;;;;;;;1.26;56.88;100181.97;5031176;28;113899;-67
2022/12/14 07:10:09;;;;;;;;;;;;;;;1.26;57.07;100182.84;5026878;28;123897;-66
2022/12/14 07:12:36;;;;;;;;;;;;;;;1.28;57.13;100186.31;5029239;28;124350;-67
2022/12/14 07:15:03;;;;;;;;;;;;;;;1.29;57.16;100190.59;5029392;28;114661;-67
2022/12/14 07:17:30;;;;;;;;;;;;;;;1.30;56.99;100189.75;5030628;28;113557;-67
2022/12/14 07:19:57;;;;;;;;;;;;;;;1.32;56.90;100198.41;5024835;28;124038;-67
2022/12/14 07:22:24;;;;;;;;;;;;;;;1.32;57.09;100193.19;5028217;28;123923;-66
2022/12/14 07:24:50;;;;;;;;;;;;;;;1.33;57.15;100194.03;5028484;28;113465;-67
2022/12/14 07:27:17;;;;;;;;;;;;;;;1.32;56.82;100193.19;5028807;28;114051;-66
2022/12/14 07:29:44;;;;;;;;;;;;;;;1.32;57.04;100193.19;5026716;28;123532;-67
2022/12/14 07:32:11;;;;;;;;;;;;;;;1.31;57.15;100194.06;5026713;28;124217;-67
2022/12/14 07:34:39;;;;;;;;;;;;;;;1.31;56.89;100191.44;5025540;28;115828;-66
2022/12/14 07:37:06;;;;;;;;;;;;;;;1.30;56.97;100189.75;5026891;28;114999;-66
2022/12/14 07:39:33;;;;;;;;;;;;;;;1.30;57.06;100189.75;5029293;28;123624;-67
2022/12/14 07:41:59;;;;;;;;;;;;;;;1.30;56.94;100188.84;5027164;28;123999;-67
2022/12/14 07:44:28;;;;;;;;;;;;;;;1.27;56.91;100194.16;5028129;27;114919;-66
2022/12/14 07:46:55;;;;;;;;;;;;;;;1.25;56.87;100191.56;5029777;27;114507;-67
2022/12/14 07:49:22;;;;;;;;;;;;;;;1.23;57.04;100193.34;5028784;28;124378;-67
2022/12/14 07:51:49;;;;;;;;;;;;;;;1.23;56.92;100187.25;5028168;28;124276;-66
2022/12/14 07:54:16;;;;;;;;;;;;;;;1.21;56.86;100184.69;5028751;27;115315;-67
2022/12/14 07:56:43;;;;;;;;;;;;;;;1.19;56.97;100196.88;5024110;28;114412;-68
2022/12/14 07:59:14;;;;;;;;;;;;;;;1.16;56.93;100197.78;5027699;28;124296;-67
2022/12/14 08:01:42;;;;;;;;;;;;;;;1.15;56.87;100206.50;5024413;27;124048;-67
2022/12/14 08:04:10;;;;;;;;;;;;;;;1.14;56.85;100198.72;5027601;28;114209;-68
2022/12/14 08:06:38;;;;;;;;;;;;;;;1.13;56.98;100202.19;5023922;28;113490;-68
2022/12/14 08:09:05;;;;;;;;;;;;;;;1.13;57.03;100199.56;5027896;27;123267;-67
2022/12/14 08:11:32;;;;;;;;;;;;;;;1.11;56.82;100203.97;5011890;27;122813;-67
2022/12/14 08:14:00;;;;;;;;;;;;;;;1.09;56.90;100205.72;5027486;27;114446;-67
2022/12/14 08:16:27;;;;;;;;;;;;;;;1.09;56.99;100205.72;5028218;28;113415;-67
2022/12/14 08:18:55;;;;;;;;;;;;;;;1.07;56.97;100207.50;5028310;27;123259;-67
2022/12/14 08:21:22;;;;;;;;;;;;;;;1.07;56.94;100212.72;5027207;28;124098;-67
2022/12/14 08:23:50;;;;;;;;;;;;;;;1.05;56.94;100211.88;5028793;28;115352;-67
2022/12/14 08:26:17;;;;;;;;;;;;;;;1.04;56.77;100218.00;5025553;28;114927;-67
2022/12/14 08:28:44;;;;;;;;;;;;;;;1.03;56.82;100218.88;5026846;28;124493;-67
2022/12/14 08:31:14;;;;;;;;;;;;;;;1.00;56.92;100227.63;5023408;28;124856;-66
2022/12/14 08:33:42;;;;;;;;;;;;;;;0.98;56.84;100224.19;5027491;28;114603;-67
2022/12/14 08:36:13;;;;;;;;;;;;;;;0.93;56.61;100226.84;5028792;28;113809;-67
2022/12/14 08:38:41;;;;;;;;;;;;;;;0.88;56.61;100231.25;5028836;28;124319;-67
2022/12/14 08:41:09;;;;;;;;;;;;;;;0.83;56.68;100230.50;5029347;27;123778;-67
2022/12/14 08:43:36;;;;;;;;;;;;;;;0.77;56.74;100225.34;5026095;28;114440;-67
2022/12/14 08:46:03;;;;;;;;;;;;;;;0.75;56.79;100227.13;5028890;28;113857;-67
2022/12/14 08:48:30;;;;;;;;;;;;;;;0.72;56.97;100228.03;5027696;28;123986;-67
2022/12/14 08:51:00;;;;;;;;;;;;;;;0.69;56.85;100216.78;5029027;27;96782;-67
2022/12/14 08:53:27;;;;;;;;;;;;;;;0.67;56.87;100219.41;5026349;27;115029;-67
2022/12/14 08:55:54;;;;;;;;;;;;;;;0.66;56.87;100222.03;5028550;28;114823;-67
2022/12/14 08:58:21;;;;;;;;;;;;;;;0.65;56.80;100230.75;5027828;27;124643;-67
2022/12/14 09:00:48;;;;;;;;;;;;;;;0.62;56.79;100233.38;5027221;28;122979;-67
2022/12/14 09:03:15;;;;;;;;;;;;;;;0.60;56.88;100232.56;5025055;28;115189;-68
2022/12/14 09:05:42;;;;;;;;;;;;;;;0.57;56.78;100234.31;5023070;28;113941;-68
2022/12/14 09:08:09;;;;;;;;;;;;;;;0.55;56.63;100233.50;5024866;28;124084;-67
2022/12/14 09:10:36;;;;;;;;;;;;;;;0.52;56.68;100236.13;5027337;28;123810;-67
2022/12/14 09:13:03;;;;;;;;;;;;;;;0.51;56.96;100234.41;5026250;27;115532;-67
2022/12/14 09:15:30;;;;;;;;;;;;;;;0.49;56.90;100232.69;5028994;28;114926;-67
2022/12/14 09:17:56;;;;;;;;;;;;;;;0.48;56.64;100239.66;5027217;28;124911;-67
2022/12/14 09:20:23;;;;;;;;;;;;;;;0.46;56.88;100244.03;5019467;27;123930;-67
2022/12/14 09:22:50;;;;;;;;;;;;;;;0.45;56.90;100244.91;5017549;28;114564;-67
2022/12/14 09:25:17;;;;;;;;;;;;;;;0.44;56.93;100253.59;5026748;28;113579;-67
2022/12/14 09:27:44;;;;;;;;;;;;;;;0.45;56.84;100250.09;5025610;27;124074;-67
2022/12/14 09:30:11;;;;;;;;;;;;;;;0.44;56.96;100247.53;5028455;27;123974;-67
2022/12/14 09:32:39;;;;;;;;;;;;;;;0.44;56.96;100258.81;5026695;28;115403;-67
2022/12/14 09:35:06;;;;;;;;;;;;;;;0.45;56.94;100257.91;5029239;28;114129;-67
2022/12/14 09:37:33;;;;;;;;;;;;;;;0.45;56.76;100257.91;5027833;27;123672;-67
2022/12/14 09:39:59;;;;;;;;;;;;;;;0.46;57.25;100261.41;5024534;28;123841;-67
2022/12/14 09:42:50;;;;;;;;;;;;;;;0.47;57.06;100253.59;5020552;28;114516;-67
2022/12/14 09:45:17;;;;;;;;;;;;;;;0.49;57.23;100241.41;5026143;27;114481;-67
2022/12/14 09:47:54;;;;;;;;;;;;;;;0.51;57.21;100244.84;5027191;28;124257;-67
2022/12/14 09:50:22;;;;;;;;;;;;;;;0.55;57.17;100241.31;5026187;28;124612;-67
2022/12/14 09:52:58;;;;;;;;;;;;;;;0.58;57.07;100241.28;5029504;28;114434;-66
2022/12/14 09:55:31;;;;;;;;;;;;;;;0.62;57.29;100236.00;5028312;28;114177;-67
2022/12/14 09:58:04;;;;;;;;;;;;;;;0.66;57.16;100232.47;5021526;28;125771;-68
2022/12/14 10:00:33;;;;;;;;;;;;;;;0.70;57.30;100223.75;5028791;28;124803;-67
2022/12/14 10:03:07;;;;;;;;;;;;;;;0.75;57.29;100219.28;5033154;28;115645;-68
2022/12/14 10:06:00;;;;;;;;;;;;;;;0.80;57.24;100225.31;5028964;28;114975;-68
2022/12/14 10:08:30;;;;;;;;;;;;;;;0.87;57.31;100221.72;5025217;28;124034;-67
2022/12/14 10:11:21;;;;;;;;;;;;;;;0.93;57.10;100221.63;5027204;28;123476;-67
2022/12/14 10:14:04;;;;;;;;;;;;;;;1.00;57.08;100216.31;5017239;28;114796;-67
2022/12/14 10:16:49;;;;;;;;;;;;;;;1.05;57.32;100214.50;5027054;28;114759;-67
2022/12/14 10:19:21;;;;;;;;;;;;;;;1.13;57.03;100217.84;5028746;28;124255;-67
2022/12/14 10:21:52;;;;;;;;;;;;;;;1.18;57.13;100221.22;5028772;28;123795;-67
2022/12/14 10:24:41;;;;;;;;;;;;;;;1.26;57.08;100218.50;5026143;28;114831;-67
2022/12/14 10:27:08;;;;;;;;;;;;;;;1.33;57.03;100210.53;5019427;28;114001;-68
2022/12/14 10:29:36;;;;;;;;;;;;;;;1.40;57.06;100215.66;5020309;28;124179;-69
2022/12/14 10:32:14;;;;;;;;;;;;;;;1.45;57.00;100219.91;5027751;28;123982;-68
2022/12/14 10:34:42;;;;;;;;;;;;;;;1.53;57.09;100218.03;5024833;28;114605;-68
2022/12/14 10:37:23;;;;;;;;;;;;;;;1.62;57.18;100217.00;5030277;28;113617;-69
2022/12/14 10:39:59;;;;;;;;;;;;;;;1.70;57.00;100222.94;5027816;28;124003;-68
2022/12/14 10:42:34;;;;;;;;;;;;;;;1.78;57.11;100227.16;5024149;27;124144;-68
2022/12/14 10:45:07;;;;;;;;;;;;;;;1.85;57.12;100223.53;5024359;28;116331;-69
2022/12/14 10:48:03;;;;;;;;;;;;;;;1.93;57.11;100216.41;5011331;28;114337;-67
2022/12/14 10:50:46;;;;;;;;;;;;;;;1.99;57.00;100221.50;5019785;28;124531;-68
2022/12/14 10:53:18;;;;;;;;;;;;;;;2.08;57.18;100226.53;5028605;28;125045;-70
2022/12/14 10:55:47;;;;;;;;;;;;;;;2.16;57.08;100217.69;5024635;28;116136;-68
2022/12/14 10:58:14;;;;;;;;;;;;;;;2.23;57.02;100220.16;5024605;28;113635;-69
2022/12/14 11:00:40;;;;;;;;;;;;;;;2.29;56.94;100209.56;5031066;28;125356;-70
2022/12/14 11:03:12;;;;;;;;;;;;;;;2.37;57.25;100217.22;5028295;28;123852;-68
2022/12/14 11:05:48;;;;;;;;;;;;;;;2.45;56.96;100214.44;5028632;28;114541;-69
2022/12/14 11:08:36;;;;;;;;;;;;;;;2.52;57.16;100211.69;5029475;28;114110;-69
2022/12/14 11:11:08;;;;;;;;;;;;;;;2.61;57.02;100220.22;5028510;28;124361;-68
2022/12/14 11:13:52;;;;;;;;;;;;;;;2.67;57.03;100212.22;5015611;27;123165;-69
2022/12/14 11:16:24;;;;;;;;;;;;;;;2.73;56.92;100214.69;5027286;28;114683;-69
2022/12/14 11:19:00;;;;;;;;;;;;;;;2.81;57.09;100218.00;5030754;28;114025;-69
2022/12/14 11:21:28;;;;;;;;;;;;;;;2.90;57.15;100228.25;5027663;27;125018;-70
2022/12/14 11:23:55;;;;;;;;;;;;;;;3.00;57.16;100222.81;5028078;27;124369;-69
2022/12/14 11:26:32;;;;;;;;;;;;;;;3.09;57.05;100227.81;5028426;27;116130;-68
2022/12/14 11:29:00;;;;;;;;;;;;;;;3.17;57.23;100215.41;5023211;28;113356;-69
2022/12/14 11:31:35;;;;;;;;;;;;;;;3.25;57.08;100234.38;5029179;28;124710;-69
2022/12/14 11:34:03;;;;;;;;;;;;;;;3.34;56.94;100227.22;5024720;28;123988;-69
2022/12/14 11:36:35;;;;;;;;;;;;;;;3.41;57.20;100227.03;5026729;28;115016;-69
2022/12/14 11:39:05;;;;;;;;;;;;;;;3.51;56.97;100219.78;5031362;28;113641;-69
2022/12/14 11:41:34;;;;;;;;;;;;;;;3.58;56.88;100216.13;5033345;28;123617;-68
2022/12/14 11:44:05;;;;;;;;;;;;;;;3.67;57.10;100215.00;5029659;28;124352;-69
2022/12/14 11:46:40;;;;;;;;;;;;;;;3.76;56.81;100219.13;5043678;27;115259;-69
2022/12/14 11:49:19;;;;;;;;;;;;;;;3.80;56.74;100210.28;5029012;27;114908;-69
2022/12/14 11:51:59;;;;;;;;;;;;;;;3.82;56.86;100208.47;5024849;28;124328;-68
2022/12/14 11:54:27;;;;;;;;;;;;;;;3.84;56.57;100207.56;5027173;28;123888;-69
2022/12/14 11:56:56;;;;;;;;;;;;;;;3.91;56.97;100208.22;5029853;28;114099;-68
2022/12/14 11:59:27;;;;;;;;;;;;;;;3.97;56.97;100205.44;5027737;28;113896;-69
2022/12/14 12:01:55;;;;;;;;;;;;;;;4.04;56.92;100204.34;5027807;28;124339;-68
2022/12/14 12:04:22;;;;;;;;;;;;;;;4.12;56.89;100206.75;5036999;27;124746;-68
2022/12/14 12:06:49;;;;;;;;;;;;;;;4.22;57.06;100204.72;5026753;28;113793;-69
2022/12/14 12:09:28;;;;;;;;;;;;;;;4.29;56.95;100203.66;5027500;28;114160;-69
2022/12/14 12:11:55;;;;;;;;;;;;;;;4.34;56.57;100207.00;5022320;28;124117;-68
2022/12/14 12:14:33;;;;;;;;;;;;;;;4.38;56.85;100213.00;5028297;27;123037;-69
2022/12/14 12:17:00;;;;;;;;;;;;;;;4.41;56.96;100208.53;5027016;28;114499;-68
2022/12/14 12:19:31;;;;;;;;;;;;;;;4.44;56.42;100203.19;5027181;28;113681;-69
2022/12/14 12:22:00;;;;;;;;;;;;;;;4.45;56.64;100204.06;5025277;28;124148;-68
2022/12/14 12:24:35;;;;;;;;;;;;;;;4.47;56.80;100208.34;5020591;28;124381;-68
2022/12/14 12:27:17;;;;;;;;;;;;;;;4.52;56.79;100207.34;5025504;28;114524;-68
2022/12/14 12:29:47;;;;;;;;;;;;;;;4.57;56.71;100208.91;5028401;27;113797;-70
2022/12/14 12:32:22;;;;;;;;;;;;;;;4.66;56.68;100202.53;5013089;28;124487;-68
2022/12/14 12:34:52;;;;;;;;;;;;;;;4.74;56.98;100205.78;5024194;28;125328;-68
2022/12/14 12:37:28;;;;;;;;;;;;;;;4.80;56.59;100202.97;5026433;28;115239;-68
2022/12/14 12:40:09;;;;;;;;;;;;;;;4.85;56.90;100203.66;5028181;27;115654;-68
2022/12/14 12:42:48;;;;;;;;;;;;;;;4.92;56.53;100204.34;5018095;27;124794;-68
2022/12/14 12:45:28;;;;;;;;;;;;;;;4.96;56.70;100212.97;5019006;27;125357;-68
2022/12/14 12:48:02;;;;;;;;;;;;;;;4.98;56.55;100213.78;5026890;27;115395;-68
2022/12/14 12:50:32;;;;;;;;;;;;;;;4.97;56.40;100212.06;5025471;27;113320;-68
2022/12/14 12:53:02;;;;;;;;;;;;;;;4.98;56.24;100213.78;5024014;27;125711;-67
2022/12/14 12:55:32;;;;;;;;;;;;;;;4.97;56.42;100217.31;5028552;27;123422;-68
2022/12/14 12:58:01;;;;;;;;;;;;;;;4.98;56.40;100224.28;5026538;28;114607;-68
2022/12/14 13:00:30;;;;;;;;;;;;;;;5.00;56.48;100232.97;5026638;28;113719;-68
2022/12/14 13:02:59;;;;;;;;;;;;;;;5.00;56.36;100223.31;5025813;28;124089;-68
2022/12/14 13:05:28;;;;;;;;;;;;;;;5.02;56.17;100225.91;5001497;28;123213;-68